Time,TemperatureF,DewpointF,PressureIn,WindDirection,WindDirectionDegrees,WindSpeedMPH,WindSpeedGustMPH,Humidity,HourlyPrecipIn,Conditions,Clouds,dailyrainin,SoftwareType,DateUTC
2013-12-02 00:29:00,34.9,34.4,30.05,North,355,2.0,3.0,98,0.10,,,0.05,VWS V14.01,2013-12-02 05:29:00,
2013-12-02 00:59:00,35.1,34.6,30.05,North,5,2.0,3.0,98,0.09,,,0.08,VWS V14.01,2013-12-02 05:59:00,
2013-12-02 01:29:00,35.6,35.1,30.04,North,355,2.0,3.0,98,0.12,,,0.12,VWS V14.01,2013-12-02 06:29:00,
2013-12-02 01:59:00,36.6,36.1,30.04,NE,52,1.0,3.0,98,0.07,,,0.12,VWS V14.01,2013-12-02 06:59:00,
2013-12-02 02:29:00,37.5,37.0,30.02,ENE,63,0.0,6.0,98,0.06,,,0.14,VWS V14.01,2013-12-02 07:29:00,
2013-12-02 02:59:00,37.7,36.9,30.01,East,80,3.0,6.0,97,0.04,,,0.16,VWS V14.01,2013-12-02 07:59:00,
2013-12-02 03:29:00,37.6,36.6,30.00,SE,142,3.0,11.0,96,0.05,,,0.17,VWS V14.01,2013-12-02 08:29:00,
2013-12-02 03:59:00,37.7,36.9,30.00,NE,55,2.0,7.0,97,0.05,,,0.19,VWS V14.01,2013-12-02 08:59:00,
2013-12-02 04:29:00,37.9,37.1,29.98,ENE,65,2.0,11.0,97,0.04,,,0.20,VWS V14.01,2013-12-02 09:29:00,
2013-12-02 04:59:00,38.2,37.4,29.98,NE,55,3.0,9.0,97,0.04,,,0.21,VWS V14.01,2013-12-02 09:59:00,
2013-12-02 05:29:00,39.0,38.2,29.98,ENE,65,3.0,7.0,97,0.03,,,0.22,VWS V14.01,2013-12-02 10:29:00,
2013-12-02 05:59:00,39.8,39.0,29.98,NE,34,5.0,9.0,97,0.06,,,0.26,VWS V14.01,2013-12-02 10:59:00,
2013-12-02 06:29:00,40.7,40.2,29.98,East,87,3.0,12.0,98,0.08,,,0.29,VWS V14.01,2013-12-02 11:29:00,
2013-12-02 06:59:00,41.3,40.5,29.98,ENE,65,2.0,11.0,97,0.12,,,0.34,VWS V14.01,2013-12-02 11:59:00,
2013-12-02 07:29:00,41.6,40.5,29.98,ESE,120,6.0,14.0,96,0.10,,,0.36,VWS V14.01,2013-12-02 12:29:00,
2013-12-02 07:59:00,41.6,40.5,29.98,NE,38,4.0,10.0,96,0.09,,,0.38,VWS V14.01,2013-12-02 12:59:00,
2013-12-02 08:29:00,41.7,40.7,29.98,ENE,67,2.0,7.0,96,0.06,,,0.40,VWS V14.01,2013-12-02 13:29:00,
2013-12-02 08:59:00,41.8,40.8,29.98,NE,52,2.0,7.0,96,0.05,,,0.41,VWS V14.01,2013-12-02 13:59:00,
2013-12-02 09:29:00,42.0,40.7,29.98,East,86,1.0,10.0,95,0.04,,,0.42,VWS V14.01,2013-12-02 14:29:00,
2013-12-02 09:59:00,42.3,41.0,29.97,ESE,104,1.0,6.0,95,0.02,,,0.42,VWS V14.01,2013-12-02 14:59:00,
2013-12-02 10:29:00,42.7,41.4,29.96,ESE,103,2.0,6.0,95,0.01,,,0.42,VWS V14.01,2013-12-02 15:29:00,
2013-12-02 10:59:00,43.3,42.0,29.94,East,94,1.0,4.0,95,0.00,,,0.42,VWS V14.01,2013-12-02 15:59:00,
2013-12-02 11:29:00,44.2,42.6,29.94,ESE,120,5.0,9.0,94,0.00,,,0.42,VWS V14.01,2013-12-02 16:29:00,
2013-12-02 11:59:00,44.4,42.5,29.93,ENE,60,1.0,14.0,93,0.00,,,0.42,VWS V14.01,2013-12-02 16:59:00,
2013-12-02 12:29:00,44.8,42.9,29.92,NE,50,7.0,9.0,93,0.00,,,0.42,VWS V14.01,2013-12-02 17:29:00,
2013-12-02 12:59:00,44.9,42.7,29.92,ESE,103,2.0,9.0,92,0.00,,,0.42,VWS V14.01,2013-12-02 17:59:00,
2013-12-02 13:29:00,45.0,43.1,29.92,ENE,57,2.0,6.0,93,0.00,,,0.42,VWS V14.01,2013-12-02 18:29:00,
2013-12-02 13:59:00,45.0,43.1,29.92,SE,143,0.0,6.0,93,0.00,,,0.42,VWS V14.01,2013-12-02 18:59:00,
2013-12-02 14:29:00,44.9,43.3,29.91,SE,144,0.0,7.0,94,0.00,,,0.42,VWS V14.01,2013-12-02 19:29:00,
2013-12-02 14:59:00,44.9,43.3,29.92,NE,44,3.0,6.0,94,0.00,,,0.42,VWS V14.01,2013-12-02 19:59:00,
2013-12-02 15:29:00,44.3,43.0,29.91,ENE,63,1.0,6.0,95,0.00,,,0.42,VWS V14.01,2013-12-02 20:29:00,
2013-12-02 15:59:00,43.7,42.6,29.90,ENE,67,1.0,7.0,96,0.00,,,0.42,VWS V14.01,2013-12-02 20:59:00,
2013-12-02 16:29:00,43.1,42.0,29.91,ENE,69,1.0,6.0,96,0.00,,,0.42,VWS V14.01,2013-12-02 21:29:00,
2013-12-02 16:59:00,42.7,41.9,29.91,SE,142,0.0,5.0,97,0.00,,,0.42,VWS V14.01,2013-12-02 21:59:00,
2013-12-02 17:29:00,42.4,41.6,29.92,ENE,76,0.0,3.0,97,0.00,,,0.42,VWS V14.01,2013-12-02 22:29:00,
2013-12-02 17:59:00,42.4,41.6,29.92,East,88,1.0,3.0,97,0.00,,,0.42,VWS V14.01,2013-12-02 22:59:00,
2013-12-02 18:29:00,42.3,41.5,29.92,ENE,69,0.0,3.0,97,0.00,,,0.42,VWS V14.01,2013-12-02 23:29:00,
2013-12-02 18:59:00,42.1,41.6,29.92,ENE,71,1.0,3.0,98,0.01,,,0.43,VWS V14.01,2013-12-02 23:59:00,
2013-12-02 19:29:00,42.2,41.7,29.91,East,96,1.0,3.0,98,0.01,,,0.43,VWS V14.01,2013-12-03 00:29:00,
2013-12-02 19:59:00,42.2,41.7,29.92,ENE,77,0.0,3.0,98,0.01,,,0.43,VWS V14.01,2013-12-03 00:59:00,
2013-12-02 20:29:00,41.7,41.2,29.92,North,355,1.0,2.0,98,0.00,,,0.43,VWS V14.01,2013-12-03 01:29:00,
2013-12-02 20:59:00,39.9,39.1,29.92,NNW,333,1.0,4.0,97,0.01,,,0.44,VWS V14.01,2013-12-03 01:59:00,
2013-12-02 21:29:00,38.8,38.0,29.91,North,11,1.0,3.0,97,0.01,,,0.44,VWS V14.01,2013-12-03 02:29:00,
2013-12-02 21:59:00,38.6,38.1,29.92,North,11,0.0,2.0,98,0.02,,,0.45,VWS V14.01,2013-12-03 02:59:00,
2013-12-02 22:29:00,38.8,38.3,29.91,North,11,0.0,1.0,98,0.01,,,0.45,VWS V14.01,2013-12-03 03:29:00,
2013-12-02 22:59:00,39.8,39.3,29.90,East,92,1.0,5.0,98,0.01,,,0.45,VWS V14.01,2013-12-03 03:59:00,
2013-12-02 23:29:00,40.2,39.7,29.90,ENE,67,2.0,5.0,98,0.00,,,0.45,VWS V14.01,2013-12-03 04:29:00,
2013-12-02 23:59:00,40.2,39.7,29.89,ENE,74,2.0,4.0,98,0.00,,,0.00,VWS V14.01,2013-12-03 04:59:00,